sensor_id;sensor_type;location;lat;lon;timestamp;P1;durP1;ratioP1;P2;durP2;ratioP2
67839;SDS011;54636;51.684;5.142;2022-08-18T00:00:43;30.42;;;26.02;;
67839;SDS011;54636;51.684;5.142;2022-08-18T00:03:09;32.88;;;26.55;;
67839;SDS011;54636;51.684;5.142;2022-08-18T00:05:35;34.22;;;27.92;;
67839;SDS011;54636;51.684;5.142;2022-08-18T00:08:02;37.33;;;27.00;;
67839;SDS011;54636;51.684;5.142;2022-08-18T00:10:28;31.98;;;27.35;;
67839;SDS011;54636;51.684;5.142;2022-08-18T00:12:55;33.30;;;27.08;;
67839;SDS011;54636;51.684;5.142;2022-08-18T00:15:20;33.72;;;25.65;;
67839;SDS011;54636;51.684;5.142;2022-08-18T00:17:45;36.95;;;27.27;;
67839;SDS011;54636;51.684;5.142;2022-08-18T00:20:13;32.78;;;27.23;;
67839;SDS011;54636;51.684;5.142;2022-08-18T00:22:45;33.33;;;28.30;;
67839;SDS011;54636;51.684;5.142;2022-08-18T00:25:12;40.15;;;28.42;;
67839;SDS011;54636;51.684;5.142;2022-08-18T00:27:39;32.40;;;27.57;;
67839;SDS011;54636;51.684;5.142;2022-08-18T00:30:07;32.85;;;27.80;;
67839;SDS011;54636;51.684;5.142;2022-08-18T00:32:38;33.03;;;26.83;;
67839;SDS011;54636;51.684;5.142;2022-08-18T00:35:13;36.25;;;27.75;;
67839;SDS011;54636;51.684;5.142;2022-08-18T00:37:42;34.05;;;26.80;;
67839;SDS011;54636;51.684;5.142;2022-08-18T00:40:09;31.10;;;25.98;;
67839;SDS011;54636;51.684;5.142;2022-08-18T00:42:42;33.97;;;26.60;;
67839;SDS011;54636;51.684;5.142;2022-08-18T00:45:11;29.85;;;26.45;;
67839;SDS011;54636;51.684;5.142;2022-08-18T00:47:39;27.83;;;24.98;;
67839;SDS011;54636;51.684;5.142;2022-08-18T00:50:05;32.50;;;26.00;;
67839;SDS011;54636;51.684;5.142;2022-08-18T00:52:31;40.10;;;27.95;;
67839;SDS011;54636;51.684;5.142;2022-08-18T00:54:57;34.97;;;26.58;;
67839;SDS011;54636;51.684;5.142;2022-08-18T00:57:24;36.65;;;27.15;;
67839;SDS011;54636;51.684;5.142;2022-08-18T00:59:56;41.60;;;27.70;;
67839;SDS011;54636;51.684;5.142;2022-08-18T01:02:36;41.50;;;27.50;;
67839;SDS011;54636;51.684;5.142;2022-08-18T01:05:10;36.83;;;27.42;;
67839;SDS011;54636;51.684;5.142;2022-08-18T01:07:43;30.40;;;26.08;;
67839;SDS011;54636;51.684;5.142;2022-08-18T01:10:11;36.83;;;30.17;;
67839;SDS011;54636;51.684;5.142;2022-08-18T01:12:41;38.65;;;28.13;;
67839;SDS011;54636;51.684;5.142;2022-08-18T01:15:27;35.60;;;26.70;;
67839;SDS011;54636;51.684;5.142;2022-08-18T01:17:53;36.88;;;28.02;;
67839;SDS011;54636;51.684;5.142;2022-08-18T01:24:01;31.20;;;27.77;;
67839;SDS011;54636;51.684;5.142;2022-08-18T01:26:28;34.30;;;27.05;;
67839;SDS011;54636;51.684;5.142;2022-08-18T01:28:57;34.58;;;26.60;;
67839;SDS011;54636;51.684;5.142;2022-08-18T01:31:33;35.00;;;27.70;;
67839;SDS011;54636;51.684;5.142;2022-08-18T01:34:08;32.22;;;27.63;;
67839;SDS011;54636;51.684;5.142;2022-08-18T01:36:38;32.53;;;28.15;;
67839;SDS011;54636;51.684;5.142;2022-08-18T01:39:06;32.85;;;27.52;;
67839;SDS011;54636;51.684;5.142;2022-08-18T01:41:33;29.33;;;26.33;;
67839;SDS011;54636;51.684;5.142;2022-08-18T01:43:58;37.33;;;27.77;;
67839;SDS011;54636;51.684;5.142;2022-08-18T01:46:26;32.35;;;28.92;;
67839;SDS011;54636;51.684;5.142;2022-08-18T01:48:53;36.17;;;27.33;;
67839;SDS011;54636;51.684;5.142;2022-08-18T01:51:19;34.38;;;29.92;;
67839;SDS011;54636;51.684;5.142;2022-08-18T01:53:46;31.00;;;27.52;;
67839;SDS011;54636;51.684;5.142;2022-08-18T01:56:12;32.42;;;26.95;;
67839;SDS011;54636;51.684;5.142;2022-08-18T01:58:41;38.35;;;28.88;;
67839;SDS011;54636;51.684;5.142;2022-08-18T02:01:08;37.67;;;29.45;;
67839;SDS011;54636;51.684;5.142;2022-08-18T02:03:38;36.70;;;29.75;;
67839;SDS011;54636;51.684;5.142;2022-08-18T02:06:12;36.97;;;29.35;;
67839;SDS011;54636;51.684;5.142;2022-08-18T02:08:38;40.88;;;31.13;;
67839;SDS011;54636;51.684;5.142;2022-08-18T02:11:04;38.47;;;31.30;;
67839;SDS011;54636;51.684;5.142;2022-08-18T02:13:31;36.38;;;30.42;;
67839;SDS011;54636;51.684;5.142;2022-08-18T02:15:57;40.25;;;32.05;;
67839;SDS011;54636;51.684;5.142;2022-08-18T02:18:25;43.28;;;35.03;;
67839;SDS011;54636;51.684;5.142;2022-08-18T02:20:54;38.70;;;33.70;;
67839;SDS011;54636;51.684;5.142;2022-08-18T02:23:22;44.97;;;34.13;;
67839;SDS011;54636;51.684;5.142;2022-08-18T02:25:48;43.83;;;33.78;;
67839;SDS011;54636;51.684;5.142;2022-08-18T02:28:14;43.60;;;34.33;;
67839;SDS011;54636;51.684;5.142;2022-08-18T02:30:40;47.40;;;34.28;;
67839;SDS011;54636;51.684;5.142;2022-08-18T02:33:06;46.25;;;32.92;;
67839;SDS011;54636;51.684;5.142;2022-08-18T02:35:34;43.55;;;34.42;;
67839;SDS011;54636;51.684;5.142;2022-08-18T02:38:00;48.15;;;34.25;;
67839;SDS011;54636;51.684;5.142;2022-08-18T02:40:27;42.92;;;32.85;;
67839;SDS011;54636;51.684;5.142;2022-08-18T02:42:53;44.22;;;33.92;;
67839;SDS011;54636;51.684;5.142;2022-08-18T02:45:19;41.65;;;33.20;;
67839;SDS011;54636;51.684;5.142;2022-08-18T02:47:50;43.50;;;34.30;;
67839;SDS011;54636;51.684;5.142;2022-08-18T02:50:17;45.28;;;33.63;;
67839;SDS011;54636;51.684;5.142;2022-08-18T02:52:43;47.53;;;34.67;;
67839;SDS011;54636;51.684;5.142;2022-08-18T02:55:08;44.33;;;32.72;;
67839;SDS011;54636;51.684;5.142;2022-08-18T02:57:34;46.55;;;32.25;;
67839;SDS011;54636;51.684;5.142;2022-08-18T03:00:00;43.15;;;33.05;;
67839;SDS011;54636;51.684;5.142;2022-08-18T03:02:26;44.22;;;34.40;;
67839;SDS011;54636;51.684;5.142;2022-08-18T03:04:51;40.83;;;32.65;;
67839;SDS011;54636;51.684;5.142;2022-08-18T03:07:17;43.20;;;33.05;;
67839;SDS011;54636;51.684;5.142;2022-08-18T03:09:42;42.75;;;31.80;;
67839;SDS011;54636;51.684;5.142;2022-08-18T03:12:08;42.13;;;33.50;;
67839;SDS011;54636;51.684;5.142;2022-08-18T03:14:35;41.42;;;31.70;;
67839;SDS011;54636;51.684;5.142;2022-08-18T03:17:03;41.72;;;31.90;;
67839;SDS011;54636;51.684;5.142;2022-08-18T03:19:30;44.25;;;32.13;;
67839;SDS011;54636;51.684;5.142;2022-08-18T03:21:56;42.50;;;31.40;;
67839;SDS011;54636;51.684;5.142;2022-08-18T03:24:23;41.17;;;31.02;;
67839;SDS011;54636;51.684;5.142;2022-08-18T03:26:51;43.45;;;31.20;;
67839;SDS011;54636;51.684;5.142;2022-08-18T03:29:18;34.72;;;29.48;;
67839;SDS011;54636;51.684;5.142;2022-08-18T03:31:44;45.17;;;29.73;;
67839;SDS011;54636;51.684;5.142;2022-08-18T03:34:12;47.67;;;30.77;;
67839;SDS011;54636;51.684;5.142;2022-08-18T03:36:39;38.17;;;31.35;;
67839;SDS011;54636;51.684;5.142;2022-08-18T03:39:07;41.38;;;30.73;;
67839;SDS011;54636;51.684;5.142;2022-08-18T03:41:33;33.72;;;28.98;;
67839;SDS011;54636;51.684;5.142;2022-08-18T03:44:03;37.88;;;30.30;;
67839;SDS011;54636;51.684;5.142;2022-08-18T03:46:28;38.60;;;28.95;;
67839;SDS011;54636;51.684;5.142;2022-08-18T03:48:55;37.55;;;29.52;;
67839;SDS011;54636;51.684;5.142;2022-08-18T03:51:23;36.22;;;29.30;;
67839;SDS011;54636;51.684;5.142;2022-08-18T03:53:56;42.08;;;29.90;;
67839;SDS011;54636;51.684;5.142;2022-08-18T03:56:25;39.67;;;30.65;;
67839;SDS011;54636;51.684;5.142;2022-08-18T03:58:58;45.33;;;30.15;;
67839;SDS011;54636;51.684;5.142;2022-08-18T04:01:28;41.05;;;28.55;;
67839;SDS011;54636;51.684;5.142;2022-08-18T04:03:57;38.88;;;30.17;;
67839;SDS011;54636;51.684;5.142;2022-08-18T04:06:26;39.80;;;30.50;;
67839;SDS011;54636;51.684;5.142;2022-08-18T04:08:54;43.50;;;29.50;;
67839;SDS011;54636;51.684;5.142;2022-08-18T04:11:21;40.88;;;30.20;;
67839;SDS011;54636;51.684;5.142;2022-08-18T04:13:48;47.13;;;31.30;;
67839;SDS011;54636;51.684;5.142;2022-08-18T04:16:13;39.25;;;29.70;;
67839;SDS011;54636;51.684;5.142;2022-08-18T04:18:39;41.33;;;27.63;;
67839;SDS011;54636;51.684;5.142;2022-08-18T04:21:06;37.92;;;28.63;;
67839;SDS011;54636;51.684;5.142;2022-08-18T04:23:35;37.30;;;28.35;;
67839;SDS011;54636;51.684;5.142;2022-08-18T04:26:04;42.47;;;29.45;;
67839;SDS011;54636;51.684;5.142;2022-08-18T04:28:31;35.65;;;27.92;;
67839;SDS011;54636;51.684;5.142;2022-08-18T04:30:57;41.03;;;28.95;;
67839;SDS011;54636;51.684;5.142;2022-08-18T04:33:24;42.03;;;29.33;;
67839;SDS011;54636;51.684;5.142;2022-08-18T04:35:50;37.08;;;28.98;;
67839;SDS011;54636;51.684;5.142;2022-08-18T04:38:16;38.88;;;28.70;;
67839;SDS011;54636;51.684;5.142;2022-08-18T04:40:42;33.05;;;27.48;;
67839;SDS011;54636;51.684;5.142;2022-08-18T04:43:07;32.58;;;27.13;;
67839;SDS011;54636;51.684;5.142;2022-08-18T04:45:39;34.45;;;26.58;;
67839;SDS011;54636;51.684;5.142;2022-08-18T04:48:06;33.78;;;27.80;;
67839;SDS011;54636;51.684;5.142;2022-08-18T04:50:31;36.33;;;28.30;;
67839;SDS011;54636;51.684;5.142;2022-08-18T04:52:57;32.70;;;26.40;;
67839;SDS011;54636;51.684;5.142;2022-08-18T04:55:47;34.03;;;27.02;;
67839;SDS011;54636;51.684;5.142;2022-08-18T04:58:16;35.92;;;27.40;;
67839;SDS011;54636;51.684;5.142;2022-08-18T05:00:43;35.63;;;27.55;;
67839;SDS011;54636;51.684;5.142;2022-08-18T05:03:09;34.33;;;27.60;;
67839;SDS011;54636;51.684;5.142;2022-08-18T05:05:35;35.30;;;28.75;;
67839;SDS011;54636;51.684;5.142;2022-08-18T05:08:00;37.38;;;29.40;;
67839;SDS011;54636;51.684;5.142;2022-08-18T05:10:26;34.88;;;29.30;;
67839;SDS011;54636;51.684;5.142;2022-08-18T05:12:51;39.75;;;29.00;;
67839;SDS011;54636;51.684;5.142;2022-08-18T05:15:16;36.22;;;28.17;;
67839;SDS011;54636;51.684;5.142;2022-08-18T05:17:43;40.72;;;31.33;;
67839;SDS011;54636;51.684;5.142;2022-08-18T05:20:09;49.70;;;34.90;;
67839;SDS011;54636;51.684;5.142;2022-08-18T05:22:35;46.08;;;35.25;;
67839;SDS011;54636;51.684;5.142;2022-08-18T05:25:05;49.92;;;37.78;;
67839;SDS011;54636;51.684;5.142;2022-08-18T05:30:02;31.55;;;25.88;;
67839;SDS011;54636;51.684;5.142;2022-08-18T05:32:31;27.73;;;24.60;;
67839;SDS011;54636;51.684;5.142;2022-08-18T05:35:01;26.92;;;23.25;;
67839;SDS011;54636;51.684;5.142;2022-08-18T05:37:53;27.77;;;22.73;;
67839;SDS011;54636;51.684;5.142;2022-08-18T05:40:17;26.13;;;22.80;;
67839;SDS011;54636;51.684;5.142;2022-08-18T05:45:14;26.00;;;22.92;;
67839;SDS011;54636;51.684;5.142;2022-08-18T05:47:41;30.83;;;25.10;;
67839;SDS011;54636;51.684;5.142;2022-08-18T05:50:14;34.15;;;25.45;;
67839;SDS011;54636;51.684;5.142;2022-08-18T05:52:45;28.92;;;24.38;;
67839;SDS011;54636;51.684;5.142;2022-08-18T05:55:16;31.95;;;25.77;;
67839;SDS011;54636;51.684;5.142;2022-08-18T05:58:16;32.90;;;25.70;;
67839;SDS011;54636;51.684;5.142;2022-08-18T06:00:50;36.08;;;27.42;;
67839;SDS011;54636;51.684;5.142;2022-08-18T06:03:20;31.00;;;27.15;;
67839;SDS011;54636;51.684;5.142;2022-08-18T06:05:54;37.33;;;27.58;;
67839;SDS011;54636;51.684;5.142;2022-08-18T06:08:23;37.33;;;27.70;;
67839;SDS011;54636;51.684;5.142;2022-08-18T06:10:54;31.65;;;26.50;;
67839;SDS011;54636;51.684;5.142;2022-08-18T06:13:19;38.13;;;26.60;;
67839;SDS011;54636;51.684;5.142;2022-08-18T06:26:16;33.45;;;24.17;;
67839;SDS011;54636;51.684;5.142;2022-08-18T06:28:59;26.80;;;23.60;;
67839;SDS011;54636;51.684;5.142;2022-08-18T06:34:15;25.33;;;20.58;;
67839;SDS011;54636;51.684;5.142;2022-08-18T06:37:09;20.38;;;18.38;;
67839;SDS011;54636;51.684;5.142;2022-08-18T06:39:47;24.55;;;19.95;;
67839;SDS011;54636;51.684;5.142;2022-08-18T06:42:18;24.27;;;19.10;;
67839;SDS011;54636;51.684;5.142;2022-08-18T06:44:49;22.05;;;17.75;;
67839;SDS011;54636;51.684;5.142;2022-08-18T06:52:31;25.00;;;20.67;;
67839;SDS011;54636;51.684;5.142;2022-08-18T06:55:00;20.63;;;18.70;;
67839;SDS011;54636;51.684;5.142;2022-08-18T06:57:37;19.98;;;17.75;;
67839;SDS011;54636;51.684;5.142;2022-08-18T07:02:47;17.55;;;14.85;;
67839;SDS011;54636;51.684;5.142;2022-08-18T07:07:43;14.35;;;12.90;;
67839;SDS011;54636;51.684;5.142;2022-08-18T07:12:40;16.35;;;12.57;;
67839;SDS011;54636;51.684;5.142;2022-08-18T07:15:05;15.57;;;11.98;;
67839;SDS011;54636;51.684;5.142;2022-08-18T07:17:35;13.82;;;12.48;;
67839;SDS011;54636;51.684;5.142;2022-08-18T07:25:24;14.18;;;12.68;;
67839;SDS011;54636;51.684;5.142;2022-08-18T07:27:53;18.05;;;10.82;;
67839;SDS011;54636;51.684;5.142;2022-08-18T07:35:29;13.13;;;10.70;;
67839;SDS011;54636;51.684;5.142;2022-08-18T07:38:02;11.48;;;10.00;;
67839;SDS011;54636;51.684;5.142;2022-08-18T07:40:40;15.45;;;11.32;;
67839;SDS011;54636;51.684;5.142;2022-08-18T07:48:44;13.15;;;11.75;;
67839;SDS011;54636;51.684;5.142;2022-08-18T07:53:55;13.85;;;10.23;;
67839;SDS011;54636;51.684;5.142;2022-08-18T07:56:32;11.25;;;10.18;;
67839;SDS011;54636;51.684;5.142;2022-08-18T08:07:08;10.75;;;9.02;;
67839;SDS011;54636;51.684;5.142;2022-08-18T08:20:55;10.38;;;9.30;;
67839;SDS011;54636;51.684;5.142;2022-08-18T08:23:42;9.45;;;8.55;;
67839;SDS011;54636;51.684;5.142;2022-08-18T08:26:35;13.43;;;9.95;;
67839;SDS011;54636;51.684;5.142;2022-08-18T08:37:23;12.30;;;9.00;;
67839;SDS011;54636;51.684;5.142;2022-08-18T08:39:57;9.32;;;8.50;;
67839;SDS011;54636;51.684;5.142;2022-08-18T08:45:03;9.63;;;8.77;;
67839;SDS011;54636;51.684;5.142;2022-08-18T08:47:39;9.43;;;8.50;;
67839;SDS011;54636;51.684;5.142;2022-08-18T08:50:23;9.65;;;8.60;;
67839;SDS011;54636;51.684;5.142;2022-08-18T08:52:58;10.57;;;9.43;;
67839;SDS011;54636;51.684;5.142;2022-08-18T08:58:01;11.25;;;8.95;;
67839;SDS011;54636;51.684;5.142;2022-08-18T09:00:46;12.40;;;9.35;;
67839;SDS011;54636;51.684;5.142;2022-08-18T09:03:21;9.73;;;8.85;;
67839;SDS011;54636;51.684;5.142;2022-08-18T09:08:33;9.93;;;8.90;;
67839;SDS011;54636;51.684;5.142;2022-08-18T09:16:38;13.45;;;10.52;;
67839;SDS011;54636;51.684;5.142;2022-08-18T09:25:32;9.73;;;8.65;;
67839;SDS011;54636;51.684;5.142;2022-08-18T09:28:09;8.82;;;7.75;;
67839;SDS011;54636;51.684;5.142;2022-08-18T09:30:44;8.05;;;7.20;;
67839;SDS011;54636;51.684;5.142;2022-08-18T09:33:19;8.38;;;7.60;;
67839;SDS011;54636;51.684;5.142;2022-08-18T09:36:07;7.60;;;6.50;;
67839;SDS011;54636;51.684;5.142;2022-08-18T09:38:37;9.18;;;6.80;;
67839;SDS011;54636;51.684;5.142;2022-08-18T09:41:35;6.68;;;5.95;;
67839;SDS011;54636;51.684;5.142;2022-08-18T09:44:13;8.60;;;6.40;;
67839;SDS011;54636;51.684;5.142;2022-08-18T09:46:59;7.65;;;6.90;;
67839;SDS011;54636;51.684;5.142;2022-08-18T09:51:55;7.03;;;6.43;;
67839;SDS011;54636;51.684;5.142;2022-08-18T09:54:32;7.57;;;6.47;;
67839;SDS011;54636;51.684;5.142;2022-08-18T10:01:59;6.68;;;6.15;;
67839;SDS011;54636;51.684;5.142;2022-08-18T10:04:37;5.95;;;5.65;;
67839;SDS011;54636;51.684;5.142;2022-08-18T10:07:27;4.78;;;4.40;;
67839;SDS011;54636;51.684;5.142;2022-08-18T10:12:32;6.00;;;5.55;;
67839;SDS011;54636;51.684;5.142;2022-08-18T10:22:54;11.48;;;6.47;;
67839;SDS011;54636;51.684;5.142;2022-08-18T10:28:08;5.82;;;5.00;;
67839;SDS011;54636;51.684;5.142;2022-08-18T10:33:04;6.57;;;4.53;;
67839;SDS011;54636;51.684;5.142;2022-08-18T10:40:33;8.45;;;5.00;;
67839;SDS011;54636;51.684;5.142;2022-08-18T10:43:07;5.53;;;4.75;;
67839;SDS011;54636;51.684;5.142;2022-08-18T10:45:44;5.82;;;5.20;;
67839;SDS011;54636;51.684;5.142;2022-08-18T10:48:17;5.55;;;5.13;;
67839;SDS011;54636;51.684;5.142;2022-08-18T10:50:51;4.97;;;4.50;;
67839;SDS011;54636;51.684;5.142;2022-08-18T10:53:43;5.93;;;4.22;;
67839;SDS011;54636;51.684;5.142;2022-08-18T10:56:20;4.75;;;3.30;;
67839;SDS011;54636;51.684;5.142;2022-08-18T11:04:32;7.25;;;5.50;;
67839;SDS011;54636;51.684;5.142;2022-08-18T11:07:22;5.45;;;5.00;;
67839;SDS011;54636;51.684;5.142;2022-08-18T11:09:51;5.10;;;4.60;;
67839;SDS011;54636;51.684;5.142;2022-08-18T11:15:20;7.10;;;6.05;;
67839;SDS011;54636;51.684;5.142;2022-08-18T11:20:36;5.68;;;5.13;;
67839;SDS011;54636;51.684;5.142;2022-08-18T11:23:03;5.13;;;4.65;;
67839;SDS011;54636;51.684;5.142;2022-08-18T11:25:38;5.07;;;4.78;;
67839;SDS011;54636;51.684;5.142;2022-08-18T11:28:21;5.80;;;4.50;;
67839;SDS011;54636;51.684;5.142;2022-08-18T11:30:49;5.05;;;4.75;;
67839;SDS011;54636;51.684;5.142;2022-08-18T11:33:17;7.28;;;5.00;;
67839;SDS011;54636;51.684;5.142;2022-08-18T11:35:48;7.32;;;4.25;;
67839;SDS011;54636;51.684;5.142;2022-08-18T11:38:16;6.85;;;5.78;;
67839;SDS011;54636;51.684;5.142;2022-08-18T11:40:47;5.57;;;5.18;;
67839;SDS011;54636;51.684;5.142;2022-08-18T11:43:18;4.82;;;4.43;;
67839;SDS011;54636;51.684;5.142;2022-08-18T11:45:53;4.50;;;4.10;;
67839;SDS011;54636;51.684;5.142;2022-08-18T12:06:38;4.07;;;3.88;;
67839;SDS011;54636;51.684;5.142;2022-08-18T12:09:22;4.80;;;4.50;;
67839;SDS011;54636;51.684;5.142;2022-08-18T12:12:01;4.50;;;4.20;;
67839;SDS011;54636;51.684;5.142;2022-08-18T12:17:47;4.68;;;4.28;;
67839;SDS011;54636;51.684;5.142;2022-08-18T12:20:14;5.13;;;4.72;;
67839;SDS011;54636;51.684;5.142;2022-08-18T12:22:41;5.03;;;3.65;;
67839;SDS011;54636;51.684;5.142;2022-08-18T12:25:11;3.57;;;3.33;;
67839;SDS011;54636;51.684;5.142;2022-08-18T12:27:38;3.08;;;2.83;;
67839;SDS011;54636;51.684;5.142;2022-08-18T12:30:04;4.53;;;3.20;;
67839;SDS011;54636;51.684;5.142;2022-08-18T12:32:32;3.10;;;2.90;;
67839;SDS011;54636;51.684;5.142;2022-08-18T12:35:01;3.13;;;2.85;;
67839;SDS011;54636;51.684;5.142;2022-08-18T12:37:28;3.47;;;3.17;;
67839;SDS011;54636;51.684;5.142;2022-08-18T12:39:55;3.78;;;3.58;;
67839;SDS011;54636;51.684;5.142;2022-08-18T12:42:22;4.05;;;3.70;;
67839;SDS011;54636;51.684;5.142;2022-08-18T12:44:48;4.63;;;4.18;;
67839;SDS011;54636;51.684;5.142;2022-08-18T12:47:16;3.50;;;3.30;;
67839;SDS011;54636;51.684;5.142;2022-08-18T12:49:45;3.97;;;3.15;;
67839;SDS011;54636;51.684;5.142;2022-08-18T12:52:11;8.38;;;3.47;;
67839;SDS011;54636;51.684;5.142;2022-08-18T12:54:36;3.60;;;2.80;;
67839;SDS011;54636;51.684;5.142;2022-08-18T12:57:04;3.65;;;3.35;;
67839;SDS011;54636;51.684;5.142;2022-08-18T12:59:33;3.78;;;3.20;;
67839;SDS011;54636;51.684;5.142;2022-08-18T13:02:00;8.05;;;3.50;;
67839;SDS011;54636;51.684;5.142;2022-08-18T13:04:25;3.58;;;3.30;;
67839;SDS011;54636;51.684;5.142;2022-08-18T13:06:51;4.00;;;3.50;;
67839;SDS011;54636;51.684;5.142;2022-08-18T13:09:19;3.33;;;3.03;;
67839;SDS011;54636;51.684;5.142;2022-08-18T13:11:45;3.20;;;2.90;;
67839;SDS011;54636;51.684;5.142;2022-08-18T13:14:11;3.70;;;3.15;;
67839;SDS011;54636;51.684;5.142;2022-08-18T13:16:41;3.60;;;3.30;;
67839;SDS011;54636;51.684;5.142;2022-08-18T13:19:09;3.65;;;3.35;;
67839;SDS011;54636;51.684;5.142;2022-08-18T13:21:38;3.75;;;3.45;;
67839;SDS011;54636;51.684;5.142;2022-08-18T13:24:05;6.18;;;3.30;;
67839;SDS011;54636;51.684;5.142;2022-08-18T13:26:32;4.47;;;4.05;;
67839;SDS011;54636;51.684;5.142;2022-08-18T13:29:00;4.70;;;4.25;;
67839;SDS011;54636;51.684;5.142;2022-08-18T13:31:26;3.08;;;2.88;;
67839;SDS011;54636;51.684;5.142;2022-08-18T13:33:52;4.15;;;3.78;;
67839;SDS011;54636;51.684;5.142;2022-08-18T13:36:19;4.75;;;3.78;;
67839;SDS011;54636;51.684;5.142;2022-08-18T13:38:44;4.47;;;3.75;;
67839;SDS011;54636;51.684;5.142;2022-08-18T13:41:10;5.22;;;3.90;;
67839;SDS011;54636;51.684;5.142;2022-08-18T13:43:37;3.47;;;3.30;;
67839;SDS011;54636;51.684;5.142;2022-08-18T13:46:11;3.38;;;3.17;;
67839;SDS011;54636;51.684;5.142;2022-08-18T13:48:39;3.42;;;3.13;;
67839;SDS011;54636;51.684;5.142;2022-08-18T13:51:07;4.25;;;3.92;;
67839;SDS011;54636;51.684;5.142;2022-08-18T13:56:03;3.23;;;3.03;;
67839;SDS011;54636;51.684;5.142;2022-08-18T13:58:29;3.15;;;2.95;;
67839;SDS011;54636;51.684;5.142;2022-08-18T14:00:59;4.00;;;3.15;;
67839;SDS011;54636;51.684;5.142;2022-08-18T14:03:27;4.07;;;3.35;;
67839;SDS011;54636;51.684;5.142;2022-08-18T14:05:53;4.28;;;3.20;;
67839;SDS011;54636;51.684;5.142;2022-08-18T14:08:22;3.15;;;2.95;;
67839;SDS011;54636;51.684;5.142;2022-08-18T14:10:50;4.13;;;3.53;;
67839;SDS011;54636;51.684;5.142;2022-08-18T14:13:20;4.10;;;3.53;;
67839;SDS011;54636;51.684;5.142;2022-08-18T14:15:46;3.97;;;3.67;;
67839;SDS011;54636;51.684;5.142;2022-08-18T14:18:12;6.57;;;3.67;;
67839;SDS011;54636;51.684;5.142;2022-08-18T14:20:38;3.97;;;3.67;;
67839;SDS011;54636;51.684;5.142;2022-08-18T14:23:22;3.65;;;3.35;;
67839;SDS011;54636;51.684;5.142;2022-08-18T14:26:06;3.58;;;3.03;;
67839;SDS011;54636;51.684;5.142;2022-08-18T14:28:50;4.57;;;3.58;;
67839;SDS011;54636;51.684;5.142;2022-08-18T14:31:16;4.47;;;2.78;;
67839;SDS011;54636;51.684;5.142;2022-08-18T14:33:42;3.40;;;3.08;;
67839;SDS011;54636;51.684;5.142;2022-08-18T14:36:10;3.33;;;3.05;;
67839;SDS011;54636;51.684;5.142;2022-08-18T14:38:37;3.60;;;3.38;;
67839;SDS011;54636;51.684;5.142;2022-08-18T14:41:03;3.35;;;3.15;;
67839;SDS011;54636;51.684;5.142;2022-08-18T14:43:30;3.22;;;2.90;;
67839;SDS011;54636;51.684;5.142;2022-08-18T14:45:59;3.42;;;3.20;;
67839;SDS011;54636;51.684;5.142;2022-08-18T14:48:25;5.18;;;3.40;;
67839;SDS011;54636;51.684;5.142;2022-08-18T14:50:52;3.20;;;2.95;;
67839;SDS011;54636;51.684;5.142;2022-08-18T14:53:25;5.45;;;3.35;;
67839;SDS011;54636;51.684;5.142;2022-08-18T14:55:53;2.75;;;2.55;;
67839;SDS011;54636;51.684;5.142;2022-08-18T14:58:20;4.18;;;3.88;;
67839;SDS011;54636;51.684;5.142;2022-08-18T15:00:50;4.55;;;4.25;;
67839;SDS011;54636;51.684;5.142;2022-08-18T15:03:16;4.20;;;3.90;;
67839;SDS011;54636;51.684;5.142;2022-08-18T15:05:41;7.00;;;3.80;;
67839;SDS011;54636;51.684;5.142;2022-08-18T15:08:07;6.18;;;3.33;;
67839;SDS011;54636;51.684;5.142;2022-08-18T15:10:32;5.03;;;4.00;;
67839;SDS011;54636;51.684;5.142;2022-08-18T15:12:58;3.78;;;3.58;;
67839;SDS011;54636;51.684;5.142;2022-08-18T15:15:27;6.82;;;3.90;;
67839;SDS011;54636;51.684;5.142;2022-08-18T15:17:53;4.07;;;3.75;;
67839;SDS011;54636;51.684;5.142;2022-08-18T15:20:21;3.63;;;3.33;;
67839;SDS011;54636;51.684;5.142;2022-08-18T15:22:48;6.10;;;4.10;;
67839;SDS011;54636;51.684;5.142;2022-08-18T15:25:32;4.32;;;3.92;;
67839;SDS011;54636;51.684;5.142;2022-08-18T15:28:17;5.60;;;4.38;;
67839;SDS011;54636;51.684;5.142;2022-08-18T15:30:44;5.65;;;4.90;;
67839;SDS011;54636;51.684;5.142;2022-08-18T15:33:11;5.03;;;4.72;;
67839;SDS011;54636;51.684;5.142;2022-08-18T15:35:39;9.82;;;4.80;;
67839;SDS011;54636;51.684;5.142;2022-08-18T15:38:09;4.50;;;4.13;;
67839;SDS011;54636;51.684;5.142;2022-08-18T15:40:56;6.07;;;5.68;;
67839;SDS011;54636;51.684;5.142;2022-08-18T15:43:24;5.68;;;5.18;;
67839;SDS011;54636;51.684;5.142;2022-08-18T15:45:51;4.93;;;4.53;;
67839;SDS011;54636;51.684;5.142;2022-08-18T15:48:18;5.00;;;4.70;;
67839;SDS011;54636;51.684;5.142;2022-08-18T15:50:45;4.28;;;3.97;;
67839;SDS011;54636;51.684;5.142;2022-08-18T15:53:12;4.80;;;4.40;;
67839;SDS011;54636;51.684;5.142;2022-08-18T15:55:39;4.03;;;3.83;;
67839;SDS011;54636;51.684;5.142;2022-08-18T15:58:06;4.05;;;3.67;;
67839;SDS011;54636;51.684;5.142;2022-08-18T16:00:32;4.43;;;4.03;;
67839;SDS011;54636;51.684;5.142;2022-08-18T16:02:59;5.78;;;5.15;;
67839;SDS011;54636;51.684;5.142;2022-08-18T16:05:37;6.18;;;5.00;;
67839;SDS011;54636;51.684;5.142;2022-08-18T16:08:05;4.80;;;4.38;;
67839;SDS011;54636;51.684;5.142;2022-08-18T16:10:33;4.68;;;4.43;;
67839;SDS011;54636;51.684;5.142;2022-08-18T16:13:01;5.05;;;4.75;;
67839;SDS011;54636;51.684;5.142;2022-08-18T16:15:28;4.25;;;4.07;;
67839;SDS011;54636;51.684;5.142;2022-08-18T16:17:58;4.68;;;4.28;;
67839;SDS011;54636;51.684;5.142;2022-08-18T16:20:24;5.07;;;4.68;;
67839;SDS011;54636;51.684;5.142;2022-08-18T16:22:49;4.75;;;4.45;;
67839;SDS011;54636;51.684;5.142;2022-08-18T16:25:16;6.22;;;4.45;;
67839;SDS011;54636;51.684;5.142;2022-08-18T16:27:42;4.70;;;4.40;;
67839;SDS011;54636;51.684;5.142;2022-08-18T16:30:12;5.30;;;4.90;;
67839;SDS011;54636;51.684;5.142;2022-08-18T16:32:40;5.72;;;5.20;;
67839;SDS011;54636;51.684;5.142;2022-08-18T16:35:06;6.90;;;4.85;;
67839;SDS011;54636;51.684;5.142;2022-08-18T16:37:32;5.55;;;5.05;;
67839;SDS011;54636;51.684;5.142;2022-08-18T16:39:57;8.73;;;4.25;;
67839;SDS011;54636;51.684;5.142;2022-08-18T16:42:23;4.80;;;4.40;;
67839;SDS011;54636;51.684;5.142;2022-08-18T16:44:48;4.32;;;4.07;;
67839;SDS011;54636;51.684;5.142;2022-08-18T16:47:14;4.25;;;3.83;;
67839;SDS011;54636;51.684;5.142;2022-08-18T16:49:45;4.18;;;3.78;;
67839;SDS011;54636;51.684;5.142;2022-08-18T16:52:14;6.90;;;4.38;;
67839;SDS011;54636;51.684;5.142;2022-08-18T16:54:40;6.20;;;4.60;;
67839;SDS011;54636;51.684;5.142;2022-08-18T16:57:06;4.93;;;4.60;;
67839;SDS011;54636;51.684;5.142;2022-08-18T16:59:32;5.13;;;4.18;;
67839;SDS011;54636;51.684;5.142;2022-08-18T17:02:15;4.90;;;4.45;;
67839;SDS011;54636;51.684;5.142;2022-08-18T17:04:41;6.43;;;4.68;;
67839;SDS011;54636;51.684;5.142;2022-08-18T17:07:06;4.47;;;4.10;;
67839;SDS011;54636;51.684;5.142;2022-08-18T17:09:32;11.07;;;5.68;;
67839;SDS011;54636;51.684;5.142;2022-08-18T17:11:59;4.68;;;4.28;;
67839;SDS011;54636;51.684;5.142;2022-08-18T17:14:25;9.70;;;4.18;;
67839;SDS011;54636;51.684;5.142;2022-08-18T17:16:53;3.92;;;3.63;;
67839;SDS011;54636;51.684;5.142;2022-08-18T17:19:20;5.57;;;4.50;;
67839;SDS011;54636;51.684;5.142;2022-08-18T17:21:47;5.00;;;4.50;;
67839;SDS011;54636;51.684;5.142;2022-08-18T17:24:13;5.15;;;4.68;;
67839;SDS011;54636;51.684;5.142;2022-08-18T17:29:05;3.80;;;3.40;;
67839;SDS011;54636;51.684;5.142;2022-08-18T17:31:45;37.33;;;9.95;;
67839;SDS011;54636;51.684;5.142;2022-08-18T17:34:14;4.75;;;3.53;;
67839;SDS011;54636;51.684;5.142;2022-08-18T17:36:53;4.53;;;3.65;;